Hauptseite
METAR-TAF:

METAR-TAF

Flughäfen :

Gran Canaria, Spanien

Flughafen Gran Canaria

Breite: 27-56N, Länge: 015-23W, Höhe: 23 m

Beobachtung

Neuester Wetterbericht von vor 37 Minuten, um 16:00 UTC
Wind 18 kt aus Nord
Temperatur 20°C
Luftfeuchtigkeit 68%
Luftdruck 1022 hPa
Sichtweite 10 km oder mehr
Leicht bewölkt in der Höhe von 2000 ft
Aufgelockert bewölkt in der Höhe von 3500 ft

METAR: GCLP 181600Z 01018KT 9999 FEW020 SCT035 20/14 Q1022 NOSIG

Zeit: 16:37 (16:37 UTC)

Prognose

Neuester Wetterbericht von vor 2 Stunden und 37 Minuten, um 14:00 UTC
Gültige Prognose vom 18 um 15 UTC bis 19 um 15 UTC
Wind 20 kt aus Nord/Nordost
Sichtweite 10 km oder mehr
Leicht bewölkt in der Höhe von 2500 ft
Aufgelockert bewölkt in der Höhe von 3000 ft

TAF: GCLP 181400Z 1815/1915 03020KT 9999 FEW025 SCT030 TX20/1913Z TN16/1906Z

Wetterbeobachtungen und Prognosen von mehr als 4000 Flughäfen (METAR und TAF Bericht).

Die verfügbaren Stationen werden durch gelbe und rote Markierungen auf der Karte dargestellt.

Führen Sie die Maus auf sie, um den Namen der Station zu sehen.

Darauf klicken, um die Beobachtung von Wetterbeobachtungen und Prognosen zu sehen.

Um die Karte zu ändern : klicken Sie auf den grünen Tasten mit einem schwarzen Kreuz Zum Vergrößern, auf den grünen Button mit einem Gedankenstrich zu verkleinern, oder auf die grünen Pfeile für benachbarte Karten.


METAR-TAF: